Time;durP1;ratioP1;P1;durP2;ratioP2;P2;SDS_P1;SDS_P2;PMS_P1;PMS_P2;Temp;Humidity;BMP_temperature;BMP_pressure;BME280_temperature;BME280_humidity;BME280_pressure;Samples;Min_cycle;Max_cycle;Signal;HPM_P1;HPM_P2
2021/07/02 00:00:57;;;;;;;6.93;6.23;;;14.70;99.90;;;;;;5033425;28;20175;-69
2021/07/02 00:03:23;;;;;;;7.13;6.37;;;14.70;99.90;;;;;;5033347;28;20647;-68
2021/07/02 00:05:48;;;;;;;7.93;6.53;;;14.70;99.90;;;;;;5033058;28;20241;-69
2021/07/02 00:08:14;;;;;;;7.67;6.60;;;14.70;99.90;;;;;;5033108;28;20180;-69
2021/07/02 00:10:39;;;;;;;7.90;6.17;;;14.70;99.90;;;;;;5033032;28;20163;-68
2021/07/02 00:13:05;;;;;;;7.40;6.20;;;14.70;99.90;;;;;;5033028;28;20190;-68
2021/07/02 00:15:30;;;;;;;9.17;7.33;;;14.70;99.90;;;;;;5033254;28;20182;-69
2021/07/02 00:17:56;;;;;;;9.67;8.70;;;14.60;99.90;;;;;;5033101;28;20635;-69
2021/07/02 00:20:21;;;;;;;7.47;6.00;;;14.60;99.90;;;;;;5032592;28;20770;-68
2021/07/02 00:22:47;;;;;;;10.33;6.80;;;14.60;99.90;;;;;;5032816;28;20201;-68
2021/07/02 00:25:13;;;;;;;7.03;6.10;;;14.50;99.90;;;;;;5024355;28;20206;-68
2021/07/02 00:27:39;;;;;;;8.90;7.23;;;14.50;99.90;;;;;;5012935;28;20173;-68
2021/07/02 00:30:05;;;;;;;6.67;6.10;;;14.50;99.90;;;;;;5012853;28;20167;-69
2021/07/02 00:32:31;;;;;;;6.67;5.97;;;14.40;99.90;;;;;;5012911;28;20493;-69
2021/07/02 00:34:56;;;;;;;9.30;8.30;;;14.40;99.90;;;;;;5027470;28;20520;-68
2021/07/02 00:37:22;;;;;;;7.90;7.20;;;14.40;99.90;;;;;;5032787;28;20181;-68
2021/07/02 00:39:47;;;;;;;8.50;7.67;;;14.40;99.90;;;;;;5032283;28;20193;-69
2021/07/02 00:42:13;;;;;;;7.77;6.97;;;14.40;99.90;;;;;;5032652;28;20257;-68
2021/07/02 00:44:43;;;;;;;7.90;7.20;;;14.40;99.90;;;;;;5032368;28;20201;-69
2021/07/02 00:47:11;;;;;;;7.90;7.20;;;14.30;99.90;;;;;;5032635;28;20170;-68
2021/07/02 00:49:37;;;;;;;9.23;6.50;;;14.30;99.90;;;;;;5031827;28;20452;-69
2021/07/02 00:52:04;;;;;;;7.17;6.57;;;14.30;99.90;;;;;;5032535;28;20911;-68
2021/07/02 00:54:30;;;;;;;8.53;7.20;;;14.30;99.90;;;;;;5032160;28;20826;-68
2021/07/02 00:56:56;;;;;;;8.80;7.30;;;14.20;99.90;;;;;;5032392;28;20830;-69
2021/07/02 00:59:22;;;;;;;9.97;7.10;;;14.20;99.90;;;;;;5031939;28;20413;-68
2021/07/02 01:01:47;;;;;;;8.93;7.63;;;14.10;99.90;;;;;;5032300;28;20167;-69
2021/07/02 01:04:13;;;;;;;9.73;8.00;;;14.10;99.90;;;;;;5031952;28;20194;-69
2021/07/02 01:06:39;;;;;;;8.07;7.27;;;14.10;99.90;;;;;;5031983;28;20408;-68
2021/07/02 01:09:08;;;;;;;8.70;7.80;;;14.10;99.90;;;;;;5031773;28;20261;-69
2021/07/02 01:11:33;;;;;;;9.13;7.40;;;14.20;99.90;;;;;;5032378;28;20763;-69
2021/07/02 01:13:59;;;;;;;12.93;7.07;;;14.20;99.90;;;;;;5032549;28;20512;-69
2021/07/02 01:16:24;;;;;;;8.60;7.20;;;14.20;99.90;;;;;;5032069;28;20549;-68
2021/07/02 01:18:50;;;;;;;8.13;7.33;;;14.20;99.90;;;;;;5031699;28;20182;-69
2021/07/02 01:21:16;;;;;;;8.33;7.53;;;14.20;99.90;;;;;;5031903;28;20382;-69
2021/07/02 01:23:42;;;;;;;7.67;6.80;;;14.20;99.90;;;;;;5031984;28;20491;-69
2021/07/02 01:26:09;;;;;;;7.57;6.70;;;14.20;99.90;;;;;;5015904;28;20201;-69
2021/07/02 01:28:35;;;;;;;8.37;7.57;;;14.30;99.90;;;;;;5012399;28;20171;-68
2021/07/02 01:31:00;;;;;;;7.93;7.13;;;14.30;99.90;;;;;;5012123;28;20973;-69
2021/07/02 01:33:26;;;;;;;6.63;6.03;;;14.20;99.90;;;;;;5014223;28;20198;-68
2021/07/02 01:35:51;;;;;;;8.17;7.37;;;14.20;99.90;;;;;;5031808;28;20173;-68
2021/07/02 01:38:17;;;;;;;10.40;7.77;;;14.20;99.90;;;;;;5031762;28;20253;-69
2021/07/02 01:40:42;;;;;;;7.43;6.70;;;14.30;99.90;;;;;;5031634;28;20663;-68
2021/07/02 01:43:08;;;;;;;7.87;7.07;;;14.30;99.90;;;;;;5031636;28;20642;-68
2021/07/02 01:45:33;;;;;;;8.27;6.80;;;14.20;99.90;;;;;;5031770;28;20234;-68
2021/07/02 01:47:59;;;;;;;7.07;6.27;;;14.10;99.90;;;;;;5013829;28;20214;-69
2021/07/02 01:50:25;;;;;;;8.17;6.87;;;14.00;99.90;;;;;;5031535;28;20567;-69
2021/07/02 01:52:53;;;;;;;8.37;6.90;;;13.90;99.90;;;;;;5031366;28;20198;-68
2021/07/02 01:55:19;;;;;;;7.83;7.00;;;13.90;99.90;;;;;;5031768;28;20478;-68
2021/07/02 01:57:45;;;;;;;7.63;6.93;;;13.80;99.90;;;;;;5031511;28;20420;-68
2021/07/02 02:00:11;;;;;;;10.10;7.40;;;13.80;99.90;;;;;;5031340;28;20436;-68
2021/07/02 02:02:36;;;;;;;9.50;7.93;;;13.80;99.90;;;;;;5031322;28;20444;-69
2021/07/02 02:05:03;;;;;;;9.73;6.50;;;13.80;99.90;;;;;;5031305;28;20957;-69
2021/07/02 02:07:29;;;;;;;7.93;7.13;;;13.80;99.90;;;;;;5031510;28;20175;-69
2021/07/02 02:09:54;;;;;;;7.67;6.70;;;13.80;99.90;;;;;;5031403;28;20421;-68
2021/07/02 02:12:20;;;;;;;8.70;6.70;;;13.80;99.90;;;;;;5031214;28;20170;-69
2021/07/02 02:14:46;;;;;;;8.83;7.10;;;13.80;99.90;;;;;;5031585;28;20171;-69
2021/07/02 02:17:11;;;;;;;8.10;7.33;;;13.80;99.90;;;;;;5032473;28;20470;-69
2021/07/02 02:19:37;;;;;;;7.50;6.70;;;13.80;99.90;;;;;;5034881;28;20171;-69
2021/07/02 02:22:03;;;;;;;8.67;7.40;;;13.70;99.90;;;;;;5034988;28;20178;-68
2021/07/02 02:24:29;;;;;;;8.13;7.33;;;13.60;99.90;;;;;;5032558;28;20198;-68
2021/07/02 02:26:54;;;;;;;9.13;7.10;;;13.60;99.90;;;;;;5015385;28;20418;-68
2021/07/02 02:29:20;;;;;;;9.80;8.30;;;13.60;99.90;;;;;;5014938;28;20544;-69
2021/07/02 02:31:46;;;;;;;9.83;7.23;;;13.60;99.90;;;;;;5015194;28;20225;-69
2021/07/02 02:34:12;;;;;;;9.13;7.50;;;13.50;99.90;;;;;;5023560;28;20436;-68
2021/07/02 02:36:37;;;;;;;9.00;7.63;;;13.40;99.90;;;;;;5034914;28;20236;-68
2021/07/02 02:39:05;;;;;;;12.20;7.73;;;13.40;99.90;;;;;;5035045;28;20190;-69
2021/07/02 02:41:30;;;;;;;12.77;8.70;;;13.40;99.90;;;;;;5035044;28;20871;-69
2021/07/02 02:43:56;;;;;;;12.80;7.37;;;13.40;99.90;;;;;;5034575;28;20564;-68
2021/07/02 02:46:21;;;;;;;10.87;7.93;;;13.40;99.90;;;;;;5034735;28;20220;-69
2021/07/02 02:48:47;;;;;;;7.90;6.70;;;13.40;99.90;;;;;;5034742;28;20186;-69
2021/07/02 02:51:12;;;;;;;7.73;6.50;;;13.40;99.90;;;;;;5034550;28;20648;-69
2021/07/02 02:53:38;;;;;;;9.40;7.67;;;13.30;99.90;;;;;;5034912;28;20683;-69
2021/07/02 02:56:04;;;;;;;8.03;6.90;;;13.30;99.90;;;;;;5034575;28;20189;-68
2021/07/02 02:58:29;;;;;;;9.00;7.40;;;13.30;99.90;;;;;;5034320;28;20170;-69
2021/07/02 03:00:55;;;;;;;8.70;7.90;;;13.20;99.90;;;;;;5016676;28;20926;-69
2021/07/02 03:03:20;;;;;;;11.67;7.60;;;13.10;99.90;;;;;;5034494;28;20559;-69
2021/07/02 03:05:47;;;;;;;8.53;7.73;;;13.10;99.90;;;;;;5034185;28;20596;-69
2021/07/02 03:08:13;;;;;;;10.00;9.00;;;13.10;99.90;;;;;;5034358;28;20204;-69
2021/07/02 03:10:38;;;;;;;10.23;8.43;;;13.00;99.90;;;;;;5034068;28;20942;-69
2021/07/02 03:13:04;;;;;;;8.20;7.07;;;13.00;99.90;;;;;;5034259;28;20269;-69
2021/07/02 03:15:29;;;;;;;7.93;7.10;;;13.00;99.90;;;;;;5034123;28;20174;-69
2021/07/02 03:17:55;;;;;;;10.10;8.17;;;13.00;99.90;;;;;;5034292;28;20628;-68
2021/07/02 03:20:21;;;;;;;10.50;8.10;;;13.00;99.90;;;;;;5034165;28;20170;-68
2021/07/02 03:22:46;;;;;;;9.43;7.57;;;12.90;99.90;;;;;;5033951;28;20706;-68
2021/07/02 03:25:12;;;;;;;9.60;8.00;;;12.90;99.90;;;;;;5025727;28;20567;-68
2021/07/02 03:27:39;;;;;;;9.10;7.80;;;12.90;99.90;;;;;;5014128;28;20539;-69
2021/07/02 03:30:10;;;;;;;8.90;7.07;;;12.90;99.90;;;;;;5013787;28;20427;-69
2021/07/02 03:32:35;;;;;;;14.47;7.73;;;12.90;99.90;;;;;;5014102;28;20433;-69
2021/07/02 03:35:01;;;;;;;9.70;8.60;;;12.90;99.90;;;;;;5029333;28;20428;-69
2021/07/02 03:37:27;;;;;;;9.93;7.67;;;12.90;99.90;;;;;;5033861;28;20170;-69
2021/07/02 03:39:52;;;;;;;8.70;7.80;;;12.90;99.90;;;;;;5033622;28;20177;-69
2021/07/02 03:42:18;;;;;;;10.60;7.83;;;12.90;99.90;;;;;;5033493;28;20166;-69
2021/07/02 03:44:44;;;;;;;9.67;7.73;;;12.90;99.90;;;;;;5033700;28;20659;-68
2021/07/02 03:47:09;;;;;;;9.90;8.90;;;12.90;99.90;;;;;;5033651;28;20174;-68
2021/07/02 03:49:35;;;;;;;8.87;7.63;;;12.90;99.90;;;;;;5033340;28;20194;-69
2021/07/02 03:52:00;;;;;;;11.03;8.37;;;12.90;99.90;;;;;;5033697;28;20205;-69
2021/07/02 03:54:26;;;;;;;13.00;8.80;;;12.90;99.90;;;;;;5054884;23;20226;-64
2021/07/02 03:59:35;;;;;;;8.73;7.83;;;12.90;99.90;;;;;;5033085;28;20172;-63
2021/07/02 04:02:01;;;;;;;8.90;7.90;;;12.90;99.90;;;;;;5033498;28;20417;-64
2021/07/02 04:04:26;;;;;;;9.17;8.33;;;12.90;99.90;;;;;;5049210;28;20548;-63
2021/07/02 04:06:52;;;;;;;7.43;6.73;;;13.00;99.90;;;;;;5053228;28;20209;-64
2021/07/02 04:09:17;;;;;;;9.70;7.87;;;13.10;99.90;;;;;;5053250;28;20170;-63
2021/07/02 04:11:43;;;;;;;9.67;8.70;;;13.20;99.90;;;;;;5052846;28;20550;-64
2021/07/02 04:14:08;;;;;;;8.50;7.63;;;13.30;99.90;;;;;;5052894;28;20543;-63
2021/07/02 04:16:34;;;;;;;8.60;7.80;;;13.40;99.90;;;;;;5053011;28;20241;-63
2021/07/02 04:19:00;;;;;;;10.33;8.67;;;13.60;99.90;;;;;;5052516;28;20521;-64
2021/07/02 04:21:26;;;;;;;9.57;7.97;;;13.70;99.90;;;;;;5052895;28;20170;-64
2021/07/02 04:23:51;;;;;;;9.20;7.90;;;13.80;99.90;;;;;;5053002;28;20559;-63
2021/07/02 04:26:17;;;;;;;9.30;8.27;;;13.80;99.90;;;;;;5049799;28;20435;-64
2021/07/02 04:28:43;;;;;;;15.83;8.33;;;13.80;99.90;;;;;;5052285;28;20170;-63
2021/07/02 04:31:08;;;;;;;8.57;7.67;;;13.90;99.90;;;;;;5052673;28;20181;-66
2021/07/02 04:33:34;;;;;;;9.40;8.20;;;14.00;99.90;;;;;;5049214;28;20273;-67
2021/07/02 04:35:59;;;;;;;9.53;8.17;;;14.10;99.90;;;;;;5032608;28;20174;-66
2021/07/02 04:38:25;;;;;;;15.03;10.10;;;14.20;99.90;;;;;;5032457;28;20220;-66
2021/07/02 04:40:51;;;;;;;9.60;7.90;;;14.20;99.90;;;;;;5032091;28;20651;-66
2021/07/02 04:43:17;;;;;;;9.13;8.23;;;14.30;99.90;;;;;;5032804;28;20206;-66
2021/07/02 04:45:42;;;;;;;7.67;6.97;;;14.40;99.90;;;;;;5032414;28;20460;-66
2021/07/02 04:48:08;;;;;;;9.07;8.17;;;14.50;99.90;;;;;;5032876;28;20166;-65
2021/07/02 04:50:33;;;;;;;9.00;7.73;;;14.60;99.90;;;;;;5033363;28;20174;-66
2021/07/02 04:52:59;;;;;;;9.37;8.00;;;14.70;99.90;;;;;;5043784;28;20211;-66
2021/07/02 04:55:24;;;;;;;9.00;8.20;;;14.80;99.90;;;;;;5032793;28;20176;-65
2021/07/02 04:57:50;;;;;;;10.80;8.70;;;14.90;99.90;;;;;;5038123;28;20239;-67
2021/07/02 05:00:16;;;;;;;9.50;7.50;;;15.00;99.90;;;;;;5049126;28;20186;-67
2021/07/02 05:02:42;;;;;;;8.67;7.40;;;15.00;99.90;;;;;;5038172;28;20650;-66
2021/07/02 05:05:08;;;;;;;8.33;7.63;;;15.00;99.90;;;;;;5041141;28;20248;-66
2021/07/02 05:07:34;;;;;;;9.23;7.27;;;14.90;99.90;;;;;;5034334;28;20181;-65
2021/07/02 05:10:01;;;;;;;9.67;8.67;;;14.90;99.90;;;;;;5051856;28;20416;-66
2021/07/02 05:12:28;;;;;;;7.90;7.20;;;14.80;99.90;;;;;;5043854;28;20432;-65
2021/07/02 05:14:54;;;;;;;10.20;9.10;;;14.90;99.90;;;;;;5034446;28;20459;-66
2021/07/02 05:17:19;;;;;;;9.27;8.47;;;15.00;99.90;;;;;;5038987;28;20431;-63
2021/07/02 05:19:45;;;;;;;11.60;8.00;;;15.10;99.90;;;;;;5036878;28;20181;-64
2021/07/02 05:22:16;;;;;;;8.33;6.93;;;15.20;99.90;;;;;;5032969;28;20178;-64
2021/07/02 05:24:41;;;;;;;7.80;7.00;;;15.30;99.90;;;;;;5047607;28;20205;-64
2021/07/02 05:27:07;;;;;;;8.70;7.67;;;15.50;99.90;;;;;;5039608;28;20449;-63
2021/07/02 05:29:32;;;;;;;8.60;7.17;;;15.70;99.90;;;;;;5051558;28;20594;-64
2021/07/02 05:31:58;;;;;;;8.73;7.87;;;16.00;99.90;;;;;;5052059;28;20174;-64
2021/07/02 05:34:24;;;;;;;12.50;8.80;;;16.20;99.90;;;;;;5041301;28;20195;-64
2021/07/02 05:36:49;;;;;;;9.03;7.87;;;16.30;99.90;;;;;;5031831;28;20540;-64
2021/07/02 05:39:15;;;;;;;12.30;6.77;;;16.30;99.90;;;;;;5031479;28;20703;-64
2021/07/02 05:41:40;;;;;;;8.07;7.37;;;16.50;99.90;;;;;;5031828;28;20198;-64
2021/07/02 05:44:06;;;;;;;10.20;8.60;;;16.40;99.90;;;;;;5031623;28;20198;-64
2021/07/02 05:46:31;;;;;;;7.40;6.73;;;16.40;99.90;;;;;;5031847;28;20204;-64
2021/07/02 05:48:57;;;;;;;8.27;7.47;;;16.50;99.90;;;;;;5031448;28;20171;-64
2021/07/02 05:51:23;;;;;;;8.03;7.30;;;16.60;99.90;;;;;;5031456;28;20169;-64
2021/07/02 05:53:48;;;;;;;8.97;7.73;;;16.90;99.90;;;;;;5035053;28;20580;-65
2021/07/02 05:56:14;;;;;;;9.23;8.27;;;16.90;99.90;;;;;;5035715;28;20245;-63
2021/07/02 05:58:39;;;;;;;7.77;7.10;;;17.10;99.90;;;;;;5035340;28;20328;-64
2021/07/02 06:01:05;;;;;;;7.50;6.80;;;17.30;99.90;;;;;;5036062;28;20178;-64
2021/07/02 06:03:31;;;;;;;7.20;6.67;;;17.70;99.90;;;;;;5035614;28;20280;-64
2021/07/02 06:05:56;;;;;;;7.47;6.77;;;17.80;99.90;;;;;;5042397;28;20201;-64
2021/07/02 06:08:22;;;;;;;9.17;8.23;;;18.00;99.90;;;;;;5036633;28;20680;-64
2021/07/02 06:10:47;;;;;;;9.77;7.90;;;17.90;99.90;;;;;;5040421;28;20170;-64
2021/07/02 06:13:13;;;;;;;10.10;7.57;;;18.10;99.90;;;;;;5050358;28;20228;-65
2021/07/02 06:15:38;;;;;;;7.27;6.67;;;18.40;99.90;;;;;;5043894;28;20252;-64
2021/07/02 06:18:08;;;;;;;13.10;6.43;;;18.70;99.90;;;;;;5052401;28;20177;-65
2021/07/02 06:20:34;;;;;;;9.37;8.57;;;19.00;99.90;;;;;;5052833;28;20174;-63
2021/07/02 06:23:00;;;;;;;8.47;7.70;;;19.10;99.90;;;;;;5034316;28;20548;-61
2021/07/02 06:25:25;;;;;;;7.27;6.57;;;19.20;99.90;;;;;;5029091;28;20208;-62
2021/07/02 06:27:51;;;;;;;9.43;7.93;;;19.20;99.90;;;;;;5059345;28;20189;-63
2021/07/02 06:30:17;;;;;;;8.97;8.07;;;19.20;99.90;;;;;;5053433;28;20235;-62
2021/07/02 06:32:44;;;;;;;7.53;6.80;;;19.40;99.90;;;;;;5057971;28;20661;-62
2021/07/02 06:35:09;;;;;;;8.50;7.47;;;19.40;99.90;;;;;;5062461;28;20667;-63
2021/07/02 06:37:35;;;;;;;8.37;7.67;;;19.50;99.90;;;;;;5062339;28;20438;-63
2021/07/02 06:40:01;;;;;;;8.53;7.40;;;19.40;99.90;;;;;;5059827;28;20192;-63
2021/07/02 06:42:26;;;;;;;8.00;7.20;;;19.40;99.90;;;;;;5061348;28;20251;-63
2021/07/02 06:44:52;;;;;;;9.43;8.57;;;19.70;99.90;;;;;;5060344;28;20877;-62
2021/07/02 06:47:18;;;;;;;7.30;6.70;;;20.00;99.90;;;;;;5060153;28;20255;-62
2021/07/02 06:49:43;;;;;;;9.60;7.47;;;20.00;99.90;;;;;;5061150;28;20578;-63
2021/07/02 06:52:09;;;;;;;9.80;7.27;;;19.90;99.90;;;;;;5059443;28;20170;-62
2021/07/02 06:54:35;;;;;;;8.57;7.87;;;20.30;99.90;;;;;;5060837;28;20716;-64
2021/07/02 06:57:02;;;;;;;9.10;8.10;;;20.40;99.90;;;;;;5060638;28;20187;-64
2021/07/02 06:59:30;;;;;;;9.40;8.40;;;20.40;99.90;;;;;;5061197;28;20931;-62
2021/07/02 07:01:55;;;;;;;7.67;6.97;;;20.40;99.90;;;;;;5062114;28;20443;-63
2021/07/02 07:04:21;;;;;;;6.80;5.73;;;20.50;99.90;;;;;;5059365;28;20455;-63
2021/07/02 07:06:47;;;;;;;8.03;7.23;;;20.80;99.90;;;;;;5058237;28;20507;-63
2021/07/02 07:09:12;;;;;;;8.53;7.83;;;20.80;99.90;;;;;;5060950;28;20265;-62
2021/07/02 07:11:38;;;;;;;9.47;7.40;;;20.50;99.90;;;;;;5057277;28;20616;-64
2021/07/02 07:14:03;;;;;;;6.70;6.10;;;20.40;99.90;;;;;;5061283;28;20192;-64
2021/07/02 07:16:29;;;;;;;8.50;7.80;;;20.70;99.90;;;;;;5059253;28;20212;-62
2021/07/02 07:18:55;;;;;;;9.20;8.40;;;20.70;99.90;;;;;;5070461;28;20181;-63
2021/07/02 07:21:20;;;;;;;8.53;6.20;;;20.70;99.90;;;;;;5071194;28;20240;-63
2021/07/02 07:23:46;;;;;;;7.73;7.03;;;20.90;99.90;;;;;;5086299;28;20265;-61
2021/07/02 07:26:11;;;;;;;8.10;7.37;;;20.90;99.90;;;;;;5069409;28;20283;-62
2021/07/02 07:28:38;;;;;;;7.13;6.53;;;21.10;99.90;;;;;;5068748;28;20177;-63
2021/07/02 07:31:05;;;;;;;7.07;6.47;;;21.30;99.90;;;;;;5061848;28;20523;-63
2021/07/02 07:33:32;;;;;;;7.37;6.77;;;21.60;99.90;;;;;;5044009;28;20455;-64
2021/07/02 07:35:57;;;;;;;7.10;6.40;;;22.10;99.90;;;;;;5033882;28;20436;-63
2021/07/02 07:38:23;;;;;;;6.87;6.37;;;22.00;99.90;;;;;;5030397;28;20429;-62
2021/07/02 07:40:48;;;;;;;7.20;6.60;;;21.30;99.90;;;;;;5047781;28;20178;-62
2021/07/02 07:43:14;;;;;;;7.90;7.10;;;21.10;99.90;;;;;;5050594;28;20675;-63
2021/07/02 07:45:39;;;;;;;7.33;6.70;;;21.10;99.90;;;;;;5050496;28;20197;-63
2021/07/02 07:48:05;;;;;;;6.87;6.37;;;21.30;99.90;;;;;;5050246;28;20173;-62
2021/07/02 07:50:41;;;;;;;6.90;6.30;;;21.60;99.90;;;;;;5048558;28;20672;-63
2021/07/02 07:53:06;;;;;;;6.63;6.13;;;22.00;99.90;;;;;;5050000;28;20208;-64
2021/07/02 07:55:31;;;;;;;6.93;6.33;;;22.50;99.90;;;;;;5048385;28;20440;-63
2021/07/02 07:57:58;;;;;;;7.00;6.30;;;22.80;99.90;;;;;;5049999;28;20185;-63
2021/07/02 08:00:24;;;;;;;6.60;6.00;;;22.90;99.90;;;;;;5049849;28;20655;-63
2021/07/02 08:02:50;;;;;;;9.83;5.90;;;23.20;99.90;;;;;;5037438;28;20757;-62
2021/07/02 08:05:17;;;;;;;7.00;6.43;;;23.80;99.90;;;;;;5030059;28;20464;-64
2021/07/02 08:07:44;;;;;;;6.13;5.53;;;24.10;99.90;;;;;;5039295;28;20432;-63
2021/07/02 08:10:12;;;;;;;8.00;6.90;;;24.30;99.90;;;;;;5049651;28;20914;-63
2021/07/02 08:12:39;;;;;;;6.83;6.23;;;24.00;99.90;;;;;;5049668;28;20431;-63
2021/07/02 08:15:06;;;;;;;7.60;7.00;;;23.80;99.90;;;;;;5048866;28;21097;-63
2021/07/02 08:17:31;;;;;;;7.03;5.93;;;23.40;99.90;;;;;;5049709;28;20432;-64
2021/07/02 08:19:57;;;;;;;7.33;6.73;;;22.90;99.90;;;;;;5049120;28;21049;-63
2021/07/02 08:22:24;;;;;;;6.80;5.87;;;23.00;99.90;;;;;;5049602;28;20185;-62
2021/07/02 08:24:50;;;;;;;7.03;5.70;;;23.10;99.90;;;;;;5049677;28;20201;-63
2021/07/02 08:27:15;;;;;;;6.27;5.77;;;23.80;99.90;;;;;;5049157;28;20473;-63
2021/07/02 08:29:41;;;;;;;6.37;5.87;;;24.50;99.90;;;;;;5048987;28;20185;-62
2021/07/02 08:32:07;;;;;;;5.97;5.47;;;25.00;98.90;;;;;;5049392;28;20196;-63
2021/07/02 08:34:32;;;;;;;7.10;6.60;;;24.70;97.80;;;;;;5047608;28;20197;-63
2021/07/02 08:36:58;;;;;;;6.63;6.03;;;24.40;98.40;;;;;;5029553;28;20643;-64
2021/07/02 08:39:24;;;;;;;7.07;5.60;;;24.40;98.00;;;;;;5029196;28;20673;-63
2021/07/02 08:41:50;;;;;;;6.60;6.10;;;24.30;97.70;;;;;;5029573;28;20436;-64
2021/07/02 08:44:16;;;;;;;7.13;6.43;;;23.80;97.80;;;;;;5029093;28;20966;-63
2021/07/02 08:46:44;;;;;;;6.83;6.33;;;23.10;97.80;;;;;;5029133;28;20193;-63
2021/07/02 08:49:10;;;;;;;9.83;5.40;;;22.70;99.50;;;;;;5029019;28;20432;-63
2021/07/02 08:51:36;;;;;;;8.43;6.10;;;22.80;99.40;;;;;;5036893;28;20572;-64
2021/07/02 08:54:02;;;;;;;6.87;6.20;;;23.60;99.10;;;;;;5061649;28;20494;-64
2021/07/02 08:56:27;;;;;;;6.20;5.60;;;24.50;96.90;;;;;;5049378;28;20181;-62
2021/07/02 08:58:53;;;;;;;6.60;6.10;;;25.10;95.30;;;;;;5048330;28;20196;-62
2021/07/02 09:01:43;;;;;;;6.30;5.80;;;25.00;94.60;;;;;;5048989;28;20663;-61
2021/07/02 09:04:19;;;;;;;6.33;5.80;;;25.00;94.80;;;;;;5048953;28;20550;-60
2021/07/02 09:06:59;;;;;;;7.30;6.60;;;25.00;94.20;;;;;;5049058;28;20415;-63
2021/07/02 09:09:24;;;;;;;7.83;6.00;;;25.40;93.90;;;;;;5048692;28;20427;-63
2021/07/02 09:11:50;;;;;;;6.20;5.63;;;25.40;92.70;;;;;;5048588;28;20863;-63
2021/07/02 09:14:23;;;;;;;5.67;5.17;;;24.40;92.00;;;;;;5048699;28;20198;-63
2021/07/02 09:16:49;;;;;;;5.90;5.23;;;23.90;93.80;;;;;;5048584;28;20177;-63
2021/07/02 09:19:22;;;;;;;6.03;5.60;;;24.50;93.80;;;;;;5048198;28;20438;-63
2021/07/02 09:21:47;;;;;;;6.20;5.07;;;25.30;94.00;;;;;;5048590;28;20182;-62
2021/07/02 09:24:39;;;;;;;5.93;5.43;;;25.90;91.70;;;;;;5048475;28;20478;-63
2021/07/02 09:27:25;;;;;;;6.53;6.03;;;26.40;91.60;;;;;;5048630;28;20600;-63
2021/07/02 09:30:21;;;;;;;6.40;5.90;;;26.60;90.20;;;;;;5048403;28;20452;-64
2021/07/02 09:32:54;;;;;;;7.60;5.47;;;26.20;90.70;;;;;;5043590;28;20490;-64
2021/07/02 09:35:23;;;;;;;5.73;5.33;;;25.90;90.30;;;;;;5048663;28;20795;-64
2021/07/02 09:37:51;;;;;;;7.10;6.27;;;26.10;90.50;;;;;;5048969;28;20420;-62
2021/07/02 09:40:23;;;;;;;4.90;4.50;;;26.60;90.00;;;;;;5048384;28;20936;-63
2021/07/02 09:43:00;;;;;;;6.87;6.20;;;27.50;88.70;;;;;;5048077;28;20480;-62
2021/07/02 09:45:27;;;;;;;6.70;5.83;;;28.00;84.90;;;;;;5048806;28;20860;-64
2021/07/02 09:47:53;;;;;;;6.07;5.50;;;27.90;81.40;;;;;;5051518;28;20427;-64
2021/07/02 09:50:20;;;;;;;5.80;5.40;;;28.00;83.00;;;;;;5041997;28;20431;-62
2021/07/02 09:52:52;;;;;;;5.90;5.30;;;26.90;83.00;;;;;;5048280;28;20416;-64
2021/07/02 09:55:20;;;;;;;6.00;5.50;;;26.20;82.30;;;;;;5047816;28;20428;-62
2021/07/02 09:57:46;;;;;;;6.30;5.67;;;26.00;84.90;;;;;;5044014;28;20459;-62
2021/07/02 10:00:14;;;;;;;6.73;6.23;;;26.90;82.60;;;;;;5050265;28;20948;-64
2021/07/02 10:02:51;;;;;;;6.70;6.07;;;27.30;82.20;;;;;;5051456;28;20176;-62
2021/07/02 10:05:17;;;;;;;5.87;5.37;;;26.30;81.40;;;;;;5068571;28;20454;-63
2021/07/02 10:07:55;;;;;;;5.67;5.17;;;25.40;81.50;;;;;;5068268;28;20935;-62
2021/07/02 10:10:20;;;;;;;6.90;5.40;;;25.00;82.60;;;;;;5048445;28;20169;-62
2021/07/02 10:12:46;;;;;;;4.93;4.63;;;24.70;83.80;;;;;;5031623;28;20415;-62
2021/07/02 10:15:11;;;;;;;5.07;4.67;;;25.80;83.60;;;;;;5036342;28;20181;-62
2021/07/02 10:17:37;;;;;;;6.83;6.33;;;27.60;80.20;;;;;;5051362;28;20684;-62
2021/07/02 10:20:03;;;;;;;5.97;5.47;;;28.90;75.80;;;;;;5051130;28;20741;-62
2021/07/02 10:22:29;;;;;;;6.27;5.40;;;30.10;74.40;;;;;;5051168;28;20166;-62
2021/07/02 10:24:56;;;;;;;5.30;4.90;;;31.30;67.80;;;;;;5051388;28;20459;-63
2021/07/02 10:27:22;;;;;;;5.60;5.20;;;30.90;63.30;;;;;;5051232;28;20181;-63
2021/07/02 10:29:48;;;;;;;6.07;5.00;;;30.70;60.40;;;;;;5032595;28;20512;-63
2021/07/02 10:32:15;;;;;;;6.43;5.93;;;29.70;63.70;;;;;;5033356;28;20171;-64
2021/07/02 10:34:41;;;;;;;8.27;7.67;;;30.30;64.80;;;;;;5051075;28;20208;-63
2021/07/02 10:37:07;;;;;;;8.23;7.63;;;30.20;64.90;;;;;;5051091;28;20416;-64
2021/07/02 10:39:35;;;;;;;5.83;5.33;;;30.80;63.00;;;;;;5053754;28;20186;-63
2021/07/02 10:42:13;;;;;;;6.03;5.50;;;30.10;61.80;;;;;;5054865;28;20431;-62
2021/07/02 10:44:54;;;;;;;7.83;5.57;;;28.80;63.50;;;;;;5054693;28;20459;-62
2021/07/02 10:47:24;;;;;;;5.97;5.57;;;31.10;61.50;;;;;;5054558;28;20408;-63
2021/07/02 10:49:53;;;;;;;5.70;5.20;;;33.50;57.30;;;;;;5054476;28;20451;-63
2021/07/02 10:52:22;;;;;;;5.10;4.80;;;36.00;53.30;;;;;;5043338;28;20483;-63
2021/07/02 10:54:49;;;;;;;6.43;5.93;;;36.10;50.40;;;;;;5054366;28;20482;-63
2021/07/02 10:57:18;;;;;;;5.40;5.00;;;36.90;49.00;;;;;;5052912;28;20437;-63
2021/07/02 10:59:50;;;;;;;6.83;6.23;;;37.50;47.20;;;;;;5054072;28;21013;-63
2021/07/02 11:02:16;;;;;;;6.00;5.60;;;37.60;44.50;;;;;;5054106;28;20464;-64
2021/07/02 11:04:54;;;;;;;5.40;5.10;;;37.30;43.30;;;;;;5053891;28;21078;-63
2021/07/02 11:07:21;;;;;;;5.47;5.07;;;37.70;41.40;;;;;;5054206;28;20422;-63
2021/07/02 11:09:49;;;;;;;6.20;5.70;;;38.00;40.80;;;;;;5054047;28;20626;-63
2021/07/02 11:12:25;;;;;;;6.23;5.83;;;37.00;40.00;;;;;;5035796;28;20498;-63
2021/07/02 11:14:53;;;;;;;6.63;6.00;;;36.10;42.20;;;;;;5034153;28;20436;-63
2021/07/02 11:17:22;;;;;;;6.33;5.93;;;36.50;42.70;;;;;;5034476;28;20417;-63
2021/07/02 11:20:10;;;;;;;6.20;5.80;;;35.60;42.10;;;;;;5033983;28;20435;-63
2021/07/02 11:22:48;;;;;;;5.43;5.07;;;37.10;42.20;;;;;;5039324;28;20504;-63
2021/07/02 11:25:24;;;;;;;6.30;5.80;;;37.50;41.80;;;;;;5051415;28;20542;-63
2021/07/02 11:27:54;;;;;;;5.87;5.47;;;38.70;41.20;;;;;;5054013;28;20447;-63
2021/07/02 11:30:34;;;;;;;5.40;5.00;;;39.90;39.80;;;;;;5053071;28;20952;-63
2021/07/02 11:33:00;;;;;;;6.63;6.13;;;41.20;38.80;;;;;;5053616;28;20455;-63
2021/07/02 11:35:32;;;;;;;5.40;5.07;;;42.50;36.50;;;;;;5053826;28;20420;-63
2021/07/02 11:38:10;;;;;;;6.10;5.60;;;41.30;36.40;;;;;;5053724;28;20410;-63
2021/07/02 11:40:47;;;;;;;7.53;4.83;;;41.80;35.70;;;;;;5047647;28;20431;-63
2021/07/02 11:43:13;;;;;;;6.10;5.70;;;40.30;36.60;;;;;;5040179;28;20509;-63
2021/07/02 11:45:43;;;;;;;5.90;5.40;;;39.70;37.00;;;;;;5033521;28;20822;-63
2021/07/02 11:48:26;;;;;;;5.90;5.50;;;40.90;37.20;;;;;;5033703;28;20897;-62
2021/07/02 11:51:07;;;;;;;6.10;5.70;;;40.60;36.80;;;;;;5032518;28;20421;-62
2021/07/02 11:53:38;;;;;;;5.63;5.20;;;40.50;36.20;;;;;;5045526;28;20464;-63
2021/07/02 11:56:09;;;;;;;6.03;5.63;;;39.60;36.30;;;;;;5037238;28;20774;-62
2021/07/02 11:58:41;;;;;;;6.23;5.73;;;38.70;36.50;;;;;;5037118;28;20432;-63
2021/07/02 12:01:13;;;;;;;5.83;5.43;;;39.50;36.10;;;;;;5033468;28;20440;-63
2021/07/02 12:03:58;;;;;;;6.40;5.90;;;41.00;34.90;;;;;;5033321;28;20438;-63
2021/07/02 12:06:25;;;;;;;5.87;5.37;;;40.60;35.40;;;;;;5033255;28;20439;-63
2021/07/02 12:09:02;;;;;;;6.67;6.27;;;40.90;36.00;;;;;;5032921;28;20421;-63
2021/07/02 12:11:45;;;;;;;5.70;5.30;;;39.60;36.20;;;;;;5047645;28;20431;-63
2021/07/02 12:14:15;;;;;;;6.30;5.80;;;38.30;36.70;;;;;;5052979;28;20788;-63
2021/07/02 12:16:43;;;;;;;5.97;5.60;;;37.90;37.20;;;;;;5052581;28;20424;-63
2021/07/02 12:19:17;;;;;;;6.00;5.50;;;37.70;36.00;;;;;;5052563;28;20943;-63
2021/07/02 12:21:54;;;;;;;6.50;6.00;;;38.20;36.70;;;;;;5052827;28;20915;-63
2021/07/02 12:24:23;;;;;;;6.00;5.60;;;39.00;35.80;;;;;;5052990;28;20432;-63
2021/07/02 12:26:54;;;;;;;6.07;5.67;;;40.00;36.10;;;;;;5052821;28;20408;-63
2021/07/02 12:29:20;;;;;;;5.33;5.00;;;40.30;35.50;;;;;;5034973;28;20538;-63
2021/07/02 12:31:50;;;;;;;6.63;6.13;;;40.50;34.90;;;;;;5032652;28;20946;-63
2021/07/02 12:34:19;;;;;;;5.13;4.83;;;40.70;34.50;;;;;;5051479;28;20679;-63
2021/07/02 12:37:05;;;;;;;5.70;5.30;;;42.70;33.50;;;;;;5052409;28;20423;-63
2021/07/02 12:39:35;;;;;;;5.87;5.37;;;42.70;33.50;;;;;;5050996;28;20424;-63
2021/07/02 12:42:10;;;;;;;6.33;5.73;;;42.30;33.20;;;;;;5051977;28;20412;-63
2021/07/02 12:44:37;;;;;;;6.50;6.10;;;42.70;32.80;;;;;;5052438;28;20533;-66
2021/07/02 12:47:08;;;;;;;5.70;5.30;;;42.90;32.90;;;;;;5052286;28;20424;-63
2021/07/02 12:49:42;;;;;;;6.10;5.70;;;42.70;32.10;;;;;;5055672;28;20485;-63